sensor_id;sensor_type;location;lat;lon;timestamp;P1;durP1;ratioP1;P2;durP2;ratioP2
6145;SDS011;3104;50.348;7.620;2023-06-19T00:00:15;7.07;;;6.57;;
6145;SDS011;3104;50.348;7.620;2023-06-19T00:02:42;7.93;;;7.33;;
6145;SDS011;3104;50.348;7.620;2023-06-19T00:05:08;6.93;;;6.50;;
6145;SDS011;3104;50.348;7.620;2023-06-19T00:07:35;7.37;;;6.87;;
6145;SDS011;3104;50.348;7.620;2023-06-19T00:10:02;7.83;;;7.23;;
6145;SDS011;3104;50.348;7.620;2023-06-19T00:12:28;7.27;;;6.77;;
6145;SDS011;3104;50.348;7.620;2023-06-19T00:14:53;7.30;;;6.70;;
6145;SDS011;3104;50.348;7.620;2023-06-19T00:17:19;7.70;;;7.10;;
6145;SDS011;3104;50.348;7.620;2023-06-19T00:19:44;8.73;;;7.93;;
6145;SDS011;3104;50.348;7.620;2023-06-19T00:22:10;7.53;;;7.03;;
6145;SDS011;3104;50.348;7.620;2023-06-19T00:24:36;8.27;;;7.77;;
6145;SDS011;3104;50.348;7.620;2023-06-19T00:27:01;9.23;;;8.63;;
6145;SDS011;3104;50.348;7.620;2023-06-19T00:29:28;8.10;;;7.60;;
6145;SDS011;3104;50.348;7.620;2023-06-19T00:31:54;8.67;;;8.07;;
6145;SDS011;3104;50.348;7.620;2023-06-19T00:34:20;8.93;;;8.23;;
6145;SDS011;3104;50.348;7.620;2023-06-19T00:36:49;8.50;;;7.90;;
6145;SDS011;3104;50.348;7.620;2023-06-19T00:39:15;8.73;;;7.70;;
6145;SDS011;3104;50.348;7.620;2023-06-19T00:41:41;9.90;;;9.20;;
6145;SDS011;3104;50.348;7.620;2023-06-19T00:44:09;7.90;;;7.30;;
6145;SDS011;3104;50.348;7.620;2023-06-19T00:46:35;9.20;;;8.50;;
6145;SDS011;3104;50.348;7.620;2023-06-19T00:49:05;8.10;;;7.60;;
6145;SDS011;3104;50.348;7.620;2023-06-19T00:51:31;7.90;;;7.40;;
6145;SDS011;3104;50.348;7.620;2023-06-19T00:53:56;9.17;;;8.47;;
6145;SDS011;3104;50.348;7.620;2023-06-19T00:56:22;9.10;;;8.40;;
6145;SDS011;3104;50.348;7.620;2023-06-19T00:58:48;8.60;;;7.97;;
6145;SDS011;3104;50.348;7.620;2023-06-19T01:01:13;14.57;;;13.37;;
6145;SDS011;3104;50.348;7.620;2023-06-19T01:03:39;9.00;;;8.40;;
6145;SDS011;3104;50.348;7.620;2023-06-19T01:06:05;8.60;;;7.90;;
6145;SDS011;3104;50.348;7.620;2023-06-19T01:11:13;8.90;;;8.30;;
6145;SDS011;3104;50.348;7.620;2023-06-19T01:13:49;8.63;;;8.00;;
6145;SDS011;3104;50.348;7.620;2023-06-19T01:16:20;7.77;;;7.13;;
6145;SDS011;3104;50.348;7.620;2023-06-19T01:18:47;9.27;;;8.37;;
6145;SDS011;3104;50.348;7.620;2023-06-19T01:21:15;8.13;;;7.53;;
6145;SDS011;3104;50.348;7.620;2023-06-19T01:23:42;8.37;;;7.77;;
6145;SDS011;3104;50.348;7.620;2023-06-19T01:26:08;8.70;;;8.10;;
6145;SDS011;3104;50.348;7.620;2023-06-19T01:28:35;7.70;;;7.20;;
6145;SDS011;3104;50.348;7.620;2023-06-19T01:31:09;7.67;;;7.13;;
6145;SDS011;3104;50.348;7.620;2023-06-19T01:33:38;8.60;;;8.00;;
6145;SDS011;3104;50.348;7.620;2023-06-19T01:36:06;7.63;;;7.10;;
6145;SDS011;3104;50.348;7.620;2023-06-19T01:38:32;8.37;;;7.77;;
6145;SDS011;3104;50.348;7.620;2023-06-19T01:40:59;8.30;;;7.80;;
6145;SDS011;3104;50.348;7.620;2023-06-19T01:43:27;7.73;;;6.90;;
6145;SDS011;3104;50.348;7.620;2023-06-19T01:45:56;9.17;;;8.50;;
6145;SDS011;3104;50.348;7.620;2023-06-19T01:48:23;7.50;;;6.90;;
6145;SDS011;3104;50.348;7.620;2023-06-19T01:50:49;7.97;;;7.17;;
6145;SDS011;3104;50.348;7.620;2023-06-19T01:53:15;8.73;;;7.93;;
6145;SDS011;3104;50.348;7.620;2023-06-19T01:55:41;7.33;;;6.93;;
6145;SDS011;3104;50.348;7.620;2023-06-19T01:58:07;7.73;;;7.03;;
6145;SDS011;3104;50.348;7.620;2023-06-19T02:00:32;7.47;;;6.90;;
6145;SDS011;3104;50.348;7.620;2023-06-19T02:03:00;8.33;;;7.83;;
6145;SDS011;3104;50.348;7.620;2023-06-19T02:05:26;8.33;;;7.83;;
6145;SDS011;3104;50.348;7.620;2023-06-19T02:07:52;8.70;;;8.10;;
6145;SDS011;3104;50.348;7.620;2023-06-19T02:10:17;8.23;;;7.67;;
6145;SDS011;3104;50.348;7.620;2023-06-19T02:12:43;8.50;;;7.80;;
6145;SDS011;3104;50.348;7.620;2023-06-19T02:15:09;7.67;;;7.07;;
6145;SDS011;3104;50.348;7.620;2023-06-19T02:17:34;8.20;;;7.70;;
6145;SDS011;3104;50.348;7.620;2023-06-19T02:20:00;8.40;;;7.90;;
6145;SDS011;3104;50.348;7.620;2023-06-19T02:22:26;8.33;;;7.63;;
6145;SDS011;3104;50.348;7.620;2023-06-19T02:24:51;8.90;;;8.20;;
6145;SDS011;3104;50.348;7.620;2023-06-19T02:27:17;8.90;;;8.13;;
6145;SDS011;3104;50.348;7.620;2023-06-19T02:29:42;9.03;;;8.33;;
6145;SDS011;3104;50.348;7.620;2023-06-19T02:32:08;9.03;;;8.43;;
6145;SDS011;3104;50.348;7.620;2023-06-19T02:34:33;8.70;;;8.10;;
6145;SDS011;3104;50.348;7.620;2023-06-19T02:36:59;9.63;;;8.83;;
6145;SDS011;3104;50.348;7.620;2023-06-19T02:39:24;9.10;;;8.40;;
6145;SDS011;3104;50.348;7.620;2023-06-19T02:41:50;9.50;;;8.80;;
6145;SDS011;3104;50.348;7.620;2023-06-19T02:44:16;8.73;;;8.13;;
6145;SDS011;3104;50.348;7.620;2023-06-19T02:46:41;9.53;;;8.83;;
6145;SDS011;3104;50.348;7.620;2023-06-19T02:49:07;8.47;;;7.97;;
6145;SDS011;3104;50.348;7.620;2023-06-19T02:51:32;10.30;;;9.60;;
6145;SDS011;3104;50.348;7.620;2023-06-19T02:53:58;9.73;;;9.03;;
6145;SDS011;3104;50.348;7.620;2023-06-19T02:56:24;9.97;;;9.20;;
6145;SDS011;3104;50.348;7.620;2023-06-19T02:58:51;10.27;;;9.47;;
6145;SDS011;3104;50.348;7.620;2023-06-19T03:01:17;9.60;;;8.87;;
6145;SDS011;3104;50.348;7.620;2023-06-19T03:03:42;10.20;;;9.50;;
6145;SDS011;3104;50.348;7.620;2023-06-19T03:06:08;8.93;;;8.30;;
6145;SDS011;3104;50.348;7.620;2023-06-19T03:08:36;8.43;;;7.80;;
6145;SDS011;3104;50.348;7.620;2023-06-19T03:11:02;10.00;;;9.30;;
6145;SDS011;3104;50.348;7.620;2023-06-19T03:13:33;10.10;;;9.40;;
6145;SDS011;3104;50.348;7.620;2023-06-19T03:16:08;10.33;;;9.63;;
6145;SDS011;3104;50.348;7.620;2023-06-19T03:18:34;9.27;;;8.67;;
6145;SDS011;3104;50.348;7.620;2023-06-19T03:20:59;10.43;;;9.60;;
6145;SDS011;3104;50.348;7.620;2023-06-19T03:23:25;10.47;;;9.50;;
6145;SDS011;3104;50.348;7.620;2023-06-19T03:25:50;9.50;;;8.80;;
6145;SDS011;3104;50.348;7.620;2023-06-19T03:28:16;9.60;;;9.00;;
6145;SDS011;3104;50.348;7.620;2023-06-19T03:30:42;9.30;;;8.60;;
6145;SDS011;3104;50.348;7.620;2023-06-19T03:33:07;10.03;;;9.30;;
6145;SDS011;3104;50.348;7.620;2023-06-19T03:35:33;8.50;;;8.00;;
6145;SDS011;3104;50.348;7.620;2023-06-19T03:37:58;8.70;;;8.10;;
6145;SDS011;3104;50.348;7.620;2023-06-19T03:40:24;9.20;;;8.60;;
6145;SDS011;3104;50.348;7.620;2023-06-19T03:42:49;9.50;;;8.80;;
6145;SDS011;3104;50.348;7.620;2023-06-19T03:45:15;8.90;;;8.07;;
6145;SDS011;3104;50.348;7.620;2023-06-19T03:47:40;8.43;;;7.83;;
6145;SDS011;3104;50.348;7.620;2023-06-19T03:50:06;8.90;;;8.20;;
6145;SDS011;3104;50.348;7.620;2023-06-19T03:52:35;8.37;;;7.87;;
6145;SDS011;3104;50.348;7.620;2023-06-19T03:55:02;7.60;;;7.03;;
6145;SDS011;3104;50.348;7.620;2023-06-19T03:57:28;7.57;;;7.07;;
6145;SDS011;3104;50.348;7.620;2023-06-19T03:59:53;8.50;;;7.90;;
6145;SDS011;3104;50.348;7.620;2023-06-19T04:02:19;7.97;;;7.40;;
6145;SDS011;3104;50.348;7.620;2023-06-19T04:04:44;7.63;;;7.07;;
6145;SDS011;3104;50.348;7.620;2023-06-19T04:07:10;8.37;;;6.80;;
6145;SDS011;3104;50.348;7.620;2023-06-19T04:09:36;7.20;;;6.17;;
6145;SDS011;3104;50.348;7.620;2023-06-19T04:12:01;7.80;;;7.07;;
6145;SDS011;3104;50.348;7.620;2023-06-19T04:14:27;7.50;;;6.90;;
6145;SDS011;3104;50.348;7.620;2023-06-19T04:16:52;7.70;;;7.20;;
6145;SDS011;3104;50.348;7.620;2023-06-19T04:19:18;6.77;;;6.27;;
6145;SDS011;3104;50.348;7.620;2023-06-19T04:21:43;7.27;;;6.77;;
6145;SDS011;3104;50.348;7.620;2023-06-19T04:24:09;7.43;;;6.83;;
6145;SDS011;3104;50.348;7.620;2023-06-19T04:26:35;6.97;;;6.47;;
6145;SDS011;3104;50.348;7.620;2023-06-19T04:29:01;7.23;;;6.67;;
6145;SDS011;3104;50.348;7.620;2023-06-19T04:31:27;6.80;;;6.30;;
6145;SDS011;3104;50.348;7.620;2023-06-19T04:33:53;6.20;;;5.70;;
6145;SDS011;3104;50.348;7.620;2023-06-19T04:36:21;6.30;;;5.80;;
6145;SDS011;3104;50.348;7.620;2023-06-19T04:38:47;6.27;;;5.87;;
6145;SDS011;3104;50.348;7.620;2023-06-19T04:41:13;6.30;;;5.80;;
6145;SDS011;3104;50.348;7.620;2023-06-19T04:43:38;6.50;;;5.97;;
6145;SDS011;3104;50.348;7.620;2023-06-19T04:46:06;6.57;;;6.00;;
6145;SDS011;3104;50.348;7.620;2023-06-19T04:48:32;6.83;;;6.10;;
6145;SDS011;3104;50.348;7.620;2023-06-19T04:51:00;6.27;;;5.47;;
6145;SDS011;3104;50.348;7.620;2023-06-19T04:53:26;6.20;;;5.70;;
6145;SDS011;3104;50.348;7.620;2023-06-19T04:55:52;5.70;;;5.30;;
6145;SDS011;3104;50.348;7.620;2023-06-19T04:58:20;6.13;;;5.63;;
6145;SDS011;3104;50.348;7.620;2023-06-19T05:00:46;6.60;;;6.10;;
6145;SDS011;3104;50.348;7.620;2023-06-19T05:03:16;6.17;;;5.77;;
6145;SDS011;3104;50.348;7.620;2023-06-19T05:05:43;6.70;;;6.20;;
6145;SDS011;3104;50.348;7.620;2023-06-19T05:08:08;5.70;;;5.30;;
6145;SDS011;3104;50.348;7.620;2023-06-19T05:10:34;9.07;;;4.93;;
6145;SDS011;3104;50.348;7.620;2023-06-19T05:13:00;5.80;;;5.40;;
6145;SDS011;3104;50.348;7.620;2023-06-19T05:15:26;5.70;;;5.40;;
6145;SDS011;3104;50.348;7.620;2023-06-19T05:17:52;6.20;;;5.70;;
6145;SDS011;3104;50.348;7.620;2023-06-19T05:20:18;6.00;;;5.70;;
6145;SDS011;3104;50.348;7.620;2023-06-19T05:22:44;5.50;;;5.10;;
6145;SDS011;3104;50.348;7.620;2023-06-19T05:25:13;6.27;;;5.87;;
6145;SDS011;3104;50.348;7.620;2023-06-19T05:27:38;6.17;;;5.77;;
6145;SDS011;3104;50.348;7.620;2023-06-19T05:30:05;5.83;;;5.43;;
6145;SDS011;3104;50.348;7.620;2023-06-19T05:32:31;5.93;;;5.40;;
6145;SDS011;3104;50.348;7.620;2023-06-19T05:34:56;5.70;;;5.20;;
6145;SDS011;3104;50.348;7.620;2023-06-19T05:37:22;5.40;;;5.03;;
6145;SDS011;3104;50.348;7.620;2023-06-19T05:39:48;7.53;;;6.93;;
6145;SDS011;3104;50.348;7.620;2023-06-19T05:42:14;6.20;;;5.70;;
6145;SDS011;3104;50.348;7.620;2023-06-19T05:44:39;5.60;;;5.20;;
6145;SDS011;3104;50.348;7.620;2023-06-19T05:47:05;6.60;;;6.00;;
6145;SDS011;3104;50.348;7.620;2023-06-19T05:49:33;6.53;;;6.03;;
6145;SDS011;3104;50.348;7.620;2023-06-19T05:51:59;6.47;;;6.03;;
6145;SDS011;3104;50.348;7.620;2023-06-19T05:54:25;5.87;;;5.47;;
6145;SDS011;3104;50.348;7.620;2023-06-19T05:56:51;6.10;;;5.60;;
6145;SDS011;3104;50.348;7.620;2023-06-19T05:59:17;6.30;;;5.80;;
6145;SDS011;3104;50.348;7.620;2023-06-19T06:01:42;5.90;;;5.40;;
6145;SDS011;3104;50.348;7.620;2023-06-19T06:04:08;6.40;;;5.97;;
6145;SDS011;3104;50.348;7.620;2023-06-19T06:06:34;6.60;;;6.10;;
6145;SDS011;3104;50.348;7.620;2023-06-19T06:09:00;6.23;;;5.70;;
6145;SDS011;3104;50.348;7.620;2023-06-19T06:11:25;6.43;;;5.93;;
6145;SDS011;3104;50.348;7.620;2023-06-19T06:13:51;7.33;;;6.53;;
6145;SDS011;3104;50.348;7.620;2023-06-19T06:16:17;6.40;;;5.90;;
6145;SDS011;3104;50.348;7.620;2023-06-19T06:18:42;6.03;;;5.63;;
6145;SDS011;3104;50.348;7.620;2023-06-19T06:21:09;6.90;;;6.30;;
6145;SDS011;3104;50.348;7.620;2023-06-19T06:23:35;7.20;;;6.50;;
6145;SDS011;3104;50.348;7.620;2023-06-19T06:26:00;7.20;;;6.70;;
6145;SDS011;3104;50.348;7.620;2023-06-19T06:28:27;8.03;;;6.37;;
6145;SDS011;3104;50.348;7.620;2023-06-19T06:30:54;7.00;;;6.40;;
6145;SDS011;3104;50.348;7.620;2023-06-19T06:33:20;6.67;;;6.07;;
6145;SDS011;3104;50.348;7.620;2023-06-19T06:35:45;6.43;;;5.93;;
6145;SDS011;3104;50.348;7.620;2023-06-19T06:38:11;6.80;;;6.27;;
6145;SDS011;3104;50.348;7.620;2023-06-19T06:40:36;7.23;;;6.63;;
6145;SDS011;3104;50.348;7.620;2023-06-19T06:43:02;7.03;;;6.33;;
6145;SDS011;3104;50.348;7.620;2023-06-19T06:45:27;8.83;;;8.00;;
6145;SDS011;3104;50.348;7.620;2023-06-19T06:47:53;7.13;;;6.60;;
6145;SDS011;3104;50.348;7.620;2023-06-19T06:50:19;7.20;;;6.50;;
6145;SDS011;3104;50.348;7.620;2023-06-19T06:52:44;6.40;;;6.00;;
6145;SDS011;3104;50.348;7.620;2023-06-19T06:55:10;6.20;;;5.60;;
6145;SDS011;3104;50.348;7.620;2023-06-19T06:57:36;6.43;;;5.93;;
6145;SDS011;3104;50.348;7.620;2023-06-19T07:00:02;6.17;;;5.77;;
6145;SDS011;3104;50.348;7.620;2023-06-19T07:02:29;6.87;;;6.37;;
6145;SDS011;3104;50.348;7.620;2023-06-19T07:04:54;5.97;;;5.43;;
6145;SDS011;3104;50.348;7.620;2023-06-19T07:07:20;6.10;;;5.50;;
6145;SDS011;3104;50.348;7.620;2023-06-19T07:09:46;6.50;;;6.00;;
6145;SDS011;3104;50.348;7.620;2023-06-19T07:12:12;5.43;;;4.93;;
6145;SDS011;3104;50.348;7.620;2023-06-19T07:14:37;6.37;;;5.87;;
6145;SDS011;3104;50.348;7.620;2023-06-19T07:17:03;5.17;;;4.77;;
6145;SDS011;3104;50.348;7.620;2023-06-19T07:19:32;7.00;;;6.40;;
6145;SDS011;3104;50.348;7.620;2023-06-19T07:21:57;8.23;;;7.53;;
6145;SDS011;3104;50.348;7.620;2023-06-19T07:24:23;5.10;;;4.80;;
6145;SDS011;3104;50.348;7.620;2023-06-19T07:26:49;5.00;;;4.70;;
6145;SDS011;3104;50.348;7.620;2023-06-19T07:29:15;6.33;;;5.83;;
6145;SDS011;3104;50.348;7.620;2023-06-19T07:31:40;5.93;;;5.33;;
6145;SDS011;3104;50.348;7.620;2023-06-19T07:34:07;5.37;;;4.87;;
6145;SDS011;3104;50.348;7.620;2023-06-19T07:36:33;5.43;;;4.93;;
6145;SDS011;3104;50.348;7.620;2023-06-19T07:38:59;5.23;;;4.83;;
6145;SDS011;3104;50.348;7.620;2023-06-19T07:41:24;5.03;;;4.73;;
6145;SDS011;3104;50.348;7.620;2023-06-19T07:43:50;5.70;;;5.20;;
6145;SDS011;3104;50.348;7.620;2023-06-19T07:46:16;5.80;;;5.30;;
6145;SDS011;3104;50.348;7.620;2023-06-19T07:48:42;4.90;;;4.50;;
6145;SDS011;3104;50.348;7.620;2023-06-19T07:51:07;4.83;;;4.43;;
6145;SDS011;3104;50.348;7.620;2023-06-19T07:53:33;6.23;;;4.30;;
6145;SDS011;3104;50.348;7.620;2023-06-19T07:55:59;4.50;;;4.20;;
6145;SDS011;3104;50.348;7.620;2023-06-19T07:58:24;5.30;;;4.90;;
6145;SDS011;3104;50.348;7.620;2023-06-19T08:00:50;5.07;;;4.77;;
6145;SDS011;3104;50.348;7.620;2023-06-19T08:03:15;5.53;;;5.13;;
6145;SDS011;3104;50.348;7.620;2023-06-19T08:05:41;4.57;;;4.27;;
6145;SDS011;3104;50.348;7.620;2023-06-19T08:08:07;5.70;;;4.43;;
6145;SDS011;3104;50.348;7.620;2023-06-19T08:10:32;4.93;;;4.50;;
6145;SDS011;3104;50.348;7.620;2023-06-19T08:12:58;3.93;;;3.73;;
6145;SDS011;3104;50.348;7.620;2023-06-19T08:15:23;5.40;;;4.90;;
6145;SDS011;3104;50.348;7.620;2023-06-19T08:17:49;4.33;;;4.03;;
6145;SDS011;3104;50.348;7.620;2023-06-19T08:20:15;5.20;;;4.70;;
6145;SDS011;3104;50.348;7.620;2023-06-19T08:22:40;4.47;;;4.17;;
6145;SDS011;3104;50.348;7.620;2023-06-19T08:25:06;5.33;;;4.83;;
6145;SDS011;3104;50.348;7.620;2023-06-19T08:27:32;4.47;;;4.17;;
6145;SDS011;3104;50.348;7.620;2023-06-19T08:29:57;4.17;;;3.80;;
6145;SDS011;3104;50.348;7.620;2023-06-19T08:32:23;6.07;;;5.57;;
6145;SDS011;3104;50.348;7.620;2023-06-19T08:34:48;4.53;;;4.20;;
6145;SDS011;3104;50.348;7.620;2023-06-19T08:37:14;3.97;;;3.77;;
6145;SDS011;3104;50.348;7.620;2023-06-19T08:39:39;3.70;;;3.50;;
6145;SDS011;3104;50.348;7.620;2023-06-19T08:42:05;4.50;;;4.10;;
6145;SDS011;3104;50.348;7.620;2023-06-19T08:44:33;4.00;;;3.80;;
6145;SDS011;3104;50.348;7.620;2023-06-19T08:46:59;4.20;;;3.90;;
6145;SDS011;3104;50.348;7.620;2023-06-19T08:49:28;4.80;;;4.40;;
6145;SDS011;3104;50.348;7.620;2023-06-19T08:51:55;3.80;;;3.57;;
6145;SDS011;3104;50.348;7.620;2023-06-19T08:54:20;5.23;;;4.83;;
6145;SDS011;3104;50.348;7.620;2023-06-19T08:56:46;4.17;;;3.87;;
6145;SDS011;3104;50.348;7.620;2023-06-19T08:59:13;4.03;;;3.73;;
6145;SDS011;3104;50.348;7.620;2023-06-19T09:01:45;4.40;;;4.10;;
6145;SDS011;3104;50.348;7.620;2023-06-19T09:04:19;3.37;;;3.17;;
6145;SDS011;3104;50.348;7.620;2023-06-19T09:06:53;3.57;;;3.33;;
6145;SDS011;3104;50.348;7.620;2023-06-19T09:09:26;4.10;;;3.80;;
6145;SDS011;3104;50.348;7.620;2023-06-19T09:12:02;3.97;;;3.67;;
6145;SDS011;3104;50.348;7.620;2023-06-19T09:14:42;4.10;;;3.80;;
6145;SDS011;3104;50.348;7.620;2023-06-19T09:17:12;3.90;;;3.50;;
6145;SDS011;3104;50.348;7.620;2023-06-19T09:19:48;6.00;;;3.90;;
6145;SDS011;3104;50.348;7.620;2023-06-19T09:22:16;3.83;;;3.63;;
6145;SDS011;3104;50.348;7.620;2023-06-19T09:24:43;3.70;;;3.50;;
6145;SDS011;3104;50.348;7.620;2023-06-19T09:29:37;3.80;;;3.47;;
6145;SDS011;3104;50.348;7.620;2023-06-19T09:32:25;4.30;;;3.73;;
6145;SDS011;3104;50.348;7.620;2023-06-19T09:34:51;3.93;;;3.43;;
6145;SDS011;3104;50.348;7.620;2023-06-19T09:37:23;3.97;;;3.67;;
6145;SDS011;3104;50.348;7.620;2023-06-19T09:39:54;3.60;;;3.40;;
6145;SDS011;3104;50.348;7.620;2023-06-19T09:42:31;4.40;;;4.00;;
6145;SDS011;3104;50.348;7.620;2023-06-19T09:44:59;4.90;;;4.40;;
6145;SDS011;3104;50.348;7.620;2023-06-19T09:47:30;5.03;;;3.70;;
6145;SDS011;3104;50.348;7.620;2023-06-19T09:49:58;6.13;;;3.30;;
6145;SDS011;3104;50.348;7.620;2023-06-19T09:52:26;3.80;;;3.50;;
6145;SDS011;3104;50.348;7.620;2023-06-19T09:54:53;3.80;;;3.60;;
6145;SDS011;3104;50.348;7.620;2023-06-19T09:57:20;6.30;;;3.80;;
6145;SDS011;3104;50.348;7.620;2023-06-19T09:59:47;3.73;;;3.53;;
6145;SDS011;3104;50.348;7.620;2023-06-19T10:02:15;3.63;;;3.43;;
6145;SDS011;3104;50.348;7.620;2023-06-19T10:04:46;6.93;;;3.87;;
6145;SDS011;3104;50.348;7.620;2023-06-19T10:07:21;3.10;;;2.90;;
6145;SDS011;3104;50.348;7.620;2023-06-19T10:10:48;4.03;;;3.70;;
6145;SDS011;3104;50.348;7.620;2023-06-19T10:12:49;3.30;;;3.00;;
6145;SDS011;3104;50.348;7.620;2023-06-19T10:15:16;3.50;;;3.20;;
6145;SDS011;3104;50.348;7.620;2023-06-19T10:17:49;3.50;;;3.30;;
6145;SDS011;3104;50.348;7.620;2023-06-19T10:20:20;4.10;;;3.80;;
6145;SDS011;3104;50.348;7.620;2023-06-19T10:22:57;3.60;;;3.30;;
6145;SDS011;3104;50.348;7.620;2023-06-19T10:25:33;3.40;;;3.10;;
6145;SDS011;3104;50.348;7.620;2023-06-19T10:28:00;3.70;;;3.20;;
6145;SDS011;3104;50.348;7.620;2023-06-19T10:30:27;4.43;;;4.00;;
6145;SDS011;3104;50.348;7.620;2023-06-19T10:32:54;4.17;;;3.67;;
6145;SDS011;3104;50.348;7.620;2023-06-19T10:35:20;4.60;;;4.20;;
6145;SDS011;3104;50.348;7.620;2023-06-19T10:37:49;3.80;;;3.43;;
6145;SDS011;3104;50.348;7.620;2023-06-19T10:40:16;3.13;;;2.90;;
6145;SDS011;3104;50.348;7.620;2023-06-19T10:42:42;3.97;;;3.57;;
6145;SDS011;3104;50.348;7.620;2023-06-19T10:45:09;2.83;;;2.70;;
6145;SDS011;3104;50.348;7.620;2023-06-19T10:47:41;3.30;;;3.10;;
6145;SDS011;3104;50.348;7.620;2023-06-19T10:50:13;3.90;;;3.60;;
6145;SDS011;3104;50.348;7.620;2023-06-19T10:52:40;3.77;;;3.57;;
6145;SDS011;3104;50.348;7.620;2023-06-19T10:55:10;3.20;;;2.90;;
6145;SDS011;3104;50.348;7.620;2023-06-19T10:57:36;3.50;;;3.30;;
6145;SDS011;3104;50.348;7.620;2023-06-19T11:00:03;3.40;;;3.20;;
6145;SDS011;3104;50.348;7.620;2023-06-19T11:02:39;3.30;;;3.10;;
6145;SDS011;3104;50.348;7.620;2023-06-19T11:05:08;3.50;;;3.23;;
6145;SDS011;3104;50.348;7.620;2023-06-19T11:07:34;3.60;;;3.30;;
6145;SDS011;3104;50.348;7.620;2023-06-19T11:10:00;3.60;;;3.40;;
6145;SDS011;3104;50.348;7.620;2023-06-19T11:12:25;3.43;;;3.00;;
6145;SDS011;3104;50.348;7.620;2023-06-19T11:14:51;3.57;;;3.27;;
6145;SDS011;3104;50.348;7.620;2023-06-19T11:17:16;2.90;;;2.67;;
6145;SDS011;3104;50.348;7.620;2023-06-19T11:19:46;3.47;;;3.27;;
6145;SDS011;3104;50.348;7.620;2023-06-19T11:22:12;3.50;;;3.30;;
6145;SDS011;3104;50.348;7.620;2023-06-19T11:24:47;3.20;;;3.00;;
6145;SDS011;3104;50.348;7.620;2023-06-19T11:27:22;4.07;;;3.67;;
6145;SDS011;3104;50.348;7.620;2023-06-19T11:29:55;5.50;;;3.80;;
6145;SDS011;3104;50.348;7.620;2023-06-19T11:32:31;3.83;;;3.53;;
6145;SDS011;3104;50.348;7.620;2023-06-19T11:35:07;3.00;;;2.80;;
6145;SDS011;3104;50.348;7.620;2023-06-19T11:37:40;3.40;;;3.00;;
6145;SDS011;3104;50.348;7.620;2023-06-19T11:40:06;2.87;;;2.67;;
6145;SDS011;3104;50.348;7.620;2023-06-19T11:42:46;4.57;;;3.20;;
6145;SDS011;3104;50.348;7.620;2023-06-19T11:45:21;3.17;;;3.03;;
6145;SDS011;3104;50.348;7.620;2023-06-19T11:47:47;3.50;;;3.30;;
6145;SDS011;3104;50.348;7.620;2023-06-19T11:50:14;3.00;;;2.80;;
6145;SDS011;3104;50.348;7.620;2023-06-19T11:52:41;2.83;;;2.50;;
6145;SDS011;3104;50.348;7.620;2023-06-19T11:55:08;3.23;;;3.03;;
6145;SDS011;3104;50.348;7.620;2023-06-19T11:57:34;3.47;;;3.17;;
6145;SDS011;3104;50.348;7.620;2023-06-19T12:00:00;3.07;;;2.87;;
6145;SDS011;3104;50.348;7.620;2023-06-19T12:02:26;3.30;;;3.10;;
6145;SDS011;3104;50.348;7.620;2023-06-19T12:04:51;2.80;;;2.60;;
6145;SDS011;3104;50.348;7.620;2023-06-19T12:07:17;3.10;;;2.90;;
6145;SDS011;3104;50.348;7.620;2023-06-19T12:09:43;3.97;;;3.17;;
6145;SDS011;3104;50.348;7.620;2023-06-19T12:12:09;3.07;;;2.80;;
6145;SDS011;3104;50.348;7.620;2023-06-19T12:14:35;3.60;;;2.93;;
6145;SDS011;3104;50.348;7.620;2023-06-19T12:17:01;4.60;;;4.30;;
6145;SDS011;3104;50.348;7.620;2023-06-19T12:19:26;3.10;;;2.90;;
6145;SDS011;3104;50.348;7.620;2023-06-19T12:21:55;3.27;;;3.07;;
6145;SDS011;3104;50.348;7.620;2023-06-19T12:24:20;2.73;;;2.57;;
6145;SDS011;3104;50.348;7.620;2023-06-19T12:26:46;2.20;;;2.10;;
6145;SDS011;3104;50.348;7.620;2023-06-19T12:29:12;3.20;;;3.00;;
6145;SDS011;3104;50.348;7.620;2023-06-19T12:31:37;3.87;;;3.57;;
6145;SDS011;3104;50.348;7.620;2023-06-19T12:34:03;3.17;;;2.87;;
6145;SDS011;3104;50.348;7.620;2023-06-19T12:36:30;2.97;;;2.77;;
6145;SDS011;3104;50.348;7.620;2023-06-19T12:38:58;3.20;;;3.00;;
6145;SDS011;3104;50.348;7.620;2023-06-19T12:41:24;3.17;;;2.93;;
6145;SDS011;3104;50.348;7.620;2023-06-19T12:43:49;3.20;;;2.90;;
6145;SDS011;3104;50.348;7.620;2023-06-19T12:46:15;3.83;;;3.40;;
6145;SDS011;3104;50.348;7.620;2023-06-19T12:48:41;3.23;;;2.93;;
6145;SDS011;3104;50.348;7.620;2023-06-19T12:51:07;4.00;;;3.70;;
6145;SDS011;3104;50.348;7.620;2023-06-19T12:53:33;4.30;;;2.97;;
6145;SDS011;3104;50.348;7.620;2023-06-19T12:55:58;3.20;;;3.00;;
6145;SDS011;3104;50.348;7.620;2023-06-19T12:58:25;2.97;;;2.67;;
6145;SDS011;3104;50.348;7.620;2023-06-19T13:00:51;3.93;;;3.63;;
6145;SDS011;3104;50.348;7.620;2023-06-19T13:03:18;3.37;;;3.17;;
6145;SDS011;3104;50.348;7.620;2023-06-19T13:05:44;3.83;;;3.30;;
6145;SDS011;3104;50.348;7.620;2023-06-19T13:08:10;2.77;;;2.63;;
6145;SDS011;3104;50.348;7.620;2023-06-19T13:10:36;3.00;;;2.80;;
6145;SDS011;3104;50.348;7.620;2023-06-19T13:13:01;3.13;;;2.93;;
6145;SDS011;3104;50.348;7.620;2023-06-19T13:15:27;3.10;;;2.90;;
6145;SDS011;3104;50.348;7.620;2023-06-19T13:17:53;3.50;;;3.23;;
6145;SDS011;3104;50.348;7.620;2023-06-19T13:20:18;4.43;;;4.13;;
6145;SDS011;3104;50.348;7.620;2023-06-19T13:22:44;3.33;;;3.00;;
6145;SDS011;3104;50.348;7.620;2023-06-19T13:25:10;3.13;;;2.93;;
6145;SDS011;3104;50.348;7.620;2023-06-19T13:27:35;3.13;;;2.93;;
6145;SDS011;3104;50.348;7.620;2023-06-19T13:30:01;3.60;;;3.40;;
6145;SDS011;3104;50.348;7.620;2023-06-19T13:32:27;3.90;;;3.60;;
6145;SDS011;3104;50.348;7.620;2023-06-19T13:34:53;3.03;;;2.73;;
6145;SDS011;3104;50.348;7.620;2023-06-19T13:37:18;3.90;;;3.10;;
6145;SDS011;3104;50.348;7.620;2023-06-19T13:39:44;3.13;;;2.50;;
6145;SDS011;3104;50.348;7.620;2023-06-19T13:42:10;3.17;;;2.93;;
6145;SDS011;3104;50.348;7.620;2023-06-19T13:44:37;4.00;;;3.17;;
6145;SDS011;3104;50.348;7.620;2023-06-19T13:47:03;4.57;;;3.10;;
6145;SDS011;3104;50.348;7.620;2023-06-19T13:49:28;3.67;;;3.40;;
6145;SDS011;3104;50.348;7.620;2023-06-19T13:51:54;3.47;;;3.27;;
6145;SDS011;3104;50.348;7.620;2023-06-19T13:54:20;2.47;;;2.37;;
6145;SDS011;3104;50.348;7.620;2023-06-19T13:56:46;3.47;;;3.17;;
6145;SDS011;3104;50.348;7.620;2023-06-19T13:59:15;3.03;;;2.83;;
6145;SDS011;3104;50.348;7.620;2023-06-19T14:01:40;3.40;;;3.20;;
6145;SDS011;3104;50.348;7.620;2023-06-19T14:04:06;3.20;;;2.80;;
6145;SDS011;3104;50.348;7.620;2023-06-19T14:06:33;3.30;;;3.00;;
6145;SDS011;3104;50.348;7.620;2023-06-19T14:08:59;3.10;;;2.90;;
6145;SDS011;3104;50.348;7.620;2023-06-19T14:11:25;2.83;;;2.73;;
6145;SDS011;3104;50.348;7.620;2023-06-19T14:13:50;2.87;;;2.67;;
6145;SDS011;3104;50.348;7.620;2023-06-19T14:16:16;3.07;;;2.87;;
6145;SDS011;3104;50.348;7.620;2023-06-19T14:18:41;3.03;;;2.87;;
6145;SDS011;3104;50.348;7.620;2023-06-19T14:21:07;3.67;;;3.20;;
6145;SDS011;3104;50.348;7.620;2023-06-19T14:23:32;2.93;;;2.73;;
6145;SDS011;3104;50.348;7.620;2023-06-19T14:26:03;3.43;;;3.23;;
6145;SDS011;3104;50.348;7.620;2023-06-19T14:28:29;3.20;;;3.00;;
6145;SDS011;3104;50.348;7.620;2023-06-19T14:30:54;2.83;;;2.73;;
6145;SDS011;3104;50.348;7.620;2023-06-19T14:33:20;3.23;;;3.03;;
6145;SDS011;3104;50.348;7.620;2023-06-19T14:35:45;3.13;;;2.90;;
6145;SDS011;3104;50.348;7.620;2023-06-19T14:38:14;3.20;;;2.97;;
6145;SDS011;3104;50.348;7.620;2023-06-19T14:40:41;3.60;;;3.30;;
6145;SDS011;3104;50.348;7.620;2023-06-19T14:43:07;3.20;;;3.00;;
6145;SDS011;3104;50.348;7.620;2023-06-19T14:45:34;3.37;;;3.07;;
6145;SDS011;3104;50.348;7.620;2023-06-19T14:48:00;2.83;;;2.63;;
6145;SDS011;3104;50.348;7.620;2023-06-19T14:50:27;3.17;;;2.97;;
6145;SDS011;3104;50.348;7.620;2023-06-19T14:52:52;2.90;;;2.77;;
6145;SDS011;3104;50.348;7.620;2023-06-19T14:55:18;3.10;;;2.90;;
6145;SDS011;3104;50.348;7.620;2023-06-19T14:57:44;3.10;;;2.90;;
6145;SDS011;3104;50.348;7.620;2023-06-19T15:00:09;3.47;;;3.27;;
6145;SDS011;3104;50.348;7.620;2023-06-19T15:02:35;4.70;;;2.97;;
6145;SDS011;3104;50.348;7.620;2023-06-19T15:05:01;3.33;;;3.07;;
6145;SDS011;3104;50.348;7.620;2023-06-19T15:07:26;3.20;;;2.90;;
6145;SDS011;3104;50.348;7.620;2023-06-19T15:09:52;3.30;;;3.10;;
6145;SDS011;3104;50.348;7.620;2023-06-19T15:12:18;3.00;;;2.80;;
6145;SDS011;3104;50.348;7.620;2023-06-19T15:14:44;4.23;;;3.93;;
6145;SDS011;3104;50.348;7.620;2023-06-19T15:17:09;3.67;;;3.40;;